sensor_id;sensor_type;location;lat;lon;timestamp;P1;P2;P0
47081;PMS5003;33066;49.296;14.470;2022-07-29T00:01:49;10;10;
47081;PMS5003;33066;49.296;14.470;2022-07-29T00:04:15;12;11;
47081;PMS5003;33066;49.296;14.470;2022-07-29T00:06:39;11;11;
47081;PMS5003;33066;49.296;14.470;2022-07-29T00:09:05;15;13;
47081;PMS5003;33066;49.296;14.470;2022-07-29T00:11:30;13;13;
47081;PMS5003;33066;49.296;14.470;2022-07-29T00:13:55;12;12;
47081;PMS5003;33066;49.296;14.470;2022-07-29T00:16:21;14;14;
47081;PMS5003;33066;49.296;14.470;2022-07-29T00:18:46;19;19;
47081;PMS5003;33066;49.296;14.470;2022-07-29T00:21:11;14;13;
47081;PMS5003;33066;49.296;14.470;2022-07-29T00:23:36;11;11;
47081;PMS5003;33066;49.296;14.470;2022-07-29T00:26:01;14;12;
47081;PMS5003;33066;49.296;14.470;2022-07-29T00:28:26;15;13;
47081;PMS5003;33066;49.296;14.470;2022-07-29T00:30:52;13;13;
47081;PMS5003;33066;49.296;14.470;2022-07-29T00:33:17;12;11;
47081;PMS5003;33066;49.296;14.470;2022-07-29T00:35:43;17;17;
47081;PMS5003;33066;49.296;14.470;2022-07-29T00:38:08;15;15;
47081;PMS5003;33066;49.296;14.470;2022-07-29T00:40:33;14;13;
47081;PMS5003;33066;49.296;14.470;2022-07-29T00:42:58;12;12;
47081;PMS5003;33066;49.296;14.470;2022-07-29T00:45:23;15;12;
47081;PMS5003;33066;49.296;14.470;2022-07-29T00:47:48;12;11;
47081;PMS5003;33066;49.296;14.470;2022-07-29T00:50:14;11;11;
47081;PMS5003;33066;49.296;14.470;2022-07-29T00:52:39;15;15;
47081;PMS5003;33066;49.296;14.470;2022-07-29T00:55:05;15;15;
47081;PMS5003;33066;49.296;14.470;2022-07-29T00:57:29;19;17;
47081;PMS5003;33066;49.296;14.470;2022-07-29T00:59:55;19;17;
47081;PMS5003;33066;49.296;14.470;2022-07-29T01:02:20;19;17;
47081;PMS5003;33066;49.296;14.470;2022-07-29T01:04:46;16;14;
47081;PMS5003;33066;49.296;14.470;2022-07-29T01:07:11;12;12;
47081;PMS5003;33066;49.296;14.470;2022-07-29T01:09:37;13;11;
47081;PMS5003;33066;49.296;14.470;2022-07-29T01:12:02;13;13;
47081;PMS5003;33066;49.296;14.470;2022-07-29T01:14:28;10;10;
47081;PMS5003;33066;49.296;14.470;2022-07-29T01:16:54;15;13;
47081;PMS5003;33066;49.296;14.470;2022-07-29T01:19:23;11;11;
47081;PMS5003;33066;49.296;14.470;2022-07-29T01:21:47;11;11;
47081;PMS5003;33066;49.296;14.470;2022-07-29T01:24:11;12;12;
47081;PMS5003;33066;49.296;14.470;2022-07-29T01:26:40;17;17;
47081;PMS5003;33066;49.296;14.470;2022-07-29T01:29:04;13;13;
47081;PMS5003;33066;49.296;14.470;2022-07-29T01:31:27;13;13;
47081;PMS5003;33066;49.296;14.470;2022-07-29T01:33:52;13;13;
47081;PMS5003;33066;49.296;14.470;2022-07-29T01:36:17;9;9;
47081;PMS5003;33066;49.296;14.470;2022-07-29T01:38:41;9;9;
47081;PMS5003;33066;49.296;14.470;2022-07-29T01:41:06;12;10;
47081;PMS5003;33066;49.296;14.470;2022-07-29T01:43:32;20;19;
47081;PMS5003;33066;49.296;14.470;2022-07-29T01:45:57;8;8;
47081;PMS5003;33066;49.296;14.470;2022-07-29T01:48:22;14;13;
47081;PMS5003;33066;49.296;14.470;2022-07-29T01:50:47;14;11;
47081;PMS5003;33066;49.296;14.470;2022-07-29T01:53:11;14;12;
47081;PMS5003;33066;49.296;14.470;2022-07-29T01:55:38;11;11;
47081;PMS5003;33066;49.296;14.470;2022-07-29T01:58:03;14;11;
47081;PMS5003;33066;49.296;14.470;2022-07-29T02:00:27;10;10;
47081;PMS5003;33066;49.296;14.470;2022-07-29T02:02:52;13;13;
47081;PMS5003;33066;49.296;14.470;2022-07-29T02:05:18;15;13;
47081;PMS5003;33066;49.296;14.470;2022-07-29T02:07:43;13;13;
47081;PMS5003;33066;49.296;14.470;2022-07-29T02:10:08;13;13;
47081;PMS5003;33066;49.296;14.470;2022-07-29T02:12:33;15;15;
47081;PMS5003;33066;49.296;14.470;2022-07-29T02:14:59;13;12;
47081;PMS5003;33066;49.296;14.470;2022-07-29T02:17:26;16;14;
47081;PMS5003;33066;49.296;14.470;2022-07-29T02:19:50;13;11;
47081;PMS5003;33066;49.296;14.470;2022-07-29T02:22:15;14;11;
47081;PMS5003;33066;49.296;14.470;2022-07-29T02:24:42;11;11;
47081;PMS5003;33066;49.296;14.470;2022-07-29T02:27:07;15;15;
47081;PMS5003;33066;49.296;14.470;2022-07-29T02:29:31;13;13;
47081;PMS5003;33066;49.296;14.470;2022-07-29T02:31:56;14;14;
47081;PMS5003;33066;49.296;14.470;2022-07-29T02:34:23;12;12;
47081;PMS5003;33066;49.296;14.470;2022-07-29T02:36:47;12;11;
47081;PMS5003;33066;49.296;14.470;2022-07-29T02:39:13;15;15;
47081;PMS5003;33066;49.296;14.470;2022-07-29T02:41:40;15;14;
47081;PMS5003;33066;49.296;14.470;2022-07-29T02:44:06;9;9;
47081;PMS5003;33066;49.296;14.470;2022-07-29T02:46:30;10;10;
47081;PMS5003;33066;49.296;14.470;2022-07-29T02:48:56;16;14;
47081;PMS5003;33066;49.296;14.470;2022-07-29T02:51:20;13;13;
47081;PMS5003;33066;49.296;14.470;2022-07-29T02:53:44;11;11;
47081;PMS5003;33066;49.296;14.470;2022-07-29T02:56:13;10;10;
47081;PMS5003;33066;49.296;14.470;2022-07-29T02:58:38;15;15;
47081;PMS5003;33066;49.296;14.470;2022-07-29T03:01:03;12;11;
47081;PMS5003;33066;49.296;14.470;2022-07-29T03:03:27;15;13;
47081;PMS5003;33066;49.296;14.470;2022-07-29T03:05:52;14;11;
47081;PMS5003;33066;49.296;14.470;2022-07-29T03:08:18;13;10;
47081;PMS5003;33066;49.296;14.470;2022-07-29T03:12:59;15;14;
47081;PMS5003;33066;49.296;14.470;2022-07-29T03:15:25;14;12;
47081;PMS5003;33066;49.296;14.470;2022-07-29T03:17:51;14;14;
47081;PMS5003;33066;49.296;14.470;2022-07-29T03:20:16;9;9;
47081;PMS5003;33066;49.296;14.470;2022-07-29T03:22:41;11;11;
47081;PMS5003;33066;49.296;14.470;2022-07-29T03:25:07;8;8;
47081;PMS5003;33066;49.296;14.470;2022-07-29T03:27:32;15;15;
47081;PMS5003;33066;49.296;14.470;2022-07-29T03:29:58;14;13;
47081;PMS5003;33066;49.296;14.470;2022-07-29T03:32:22;14;14;
47081;PMS5003;33066;49.296;14.470;2022-07-29T03:34:48;13;13;
47081;PMS5003;33066;49.296;14.470;2022-07-29T03:37:13;12;11;
47081;PMS5003;33066;49.296;14.470;2022-07-29T03:39:39;12;10;
47081;PMS5003;33066;49.296;14.470;2022-07-29T03:42:03;10;10;
47081;PMS5003;33066;49.296;14.470;2022-07-29T03:44:28;19;19;
47081;PMS5003;33066;49.296;14.470;2022-07-29T03:46:53;15;13;
47081;PMS5003;33066;49.296;14.470;2022-07-29T03:49:18;13;12;
47081;PMS5003;33066;49.296;14.470;2022-07-29T03:51:44;15;13;
47081;PMS5003;33066;49.296;14.470;2022-07-29T03:54:09;12;11;
47081;PMS5003;33066;49.296;14.470;2022-07-29T03:56:34;15;13;
47081;PMS5003;33066;49.296;14.470;2022-07-29T03:58:59;11;11;
47081;PMS5003;33066;49.296;14.470;2022-07-29T04:01:25;12;12;
47081;PMS5003;33066;49.296;14.470;2022-07-29T04:03:51;10;10;
47081;PMS5003;33066;49.296;14.470;2022-07-29T04:06:15;15;14;
47081;PMS5003;33066;49.296;14.470;2022-07-29T04:08:41;12;11;
47081;PMS5003;33066;49.296;14.470;2022-07-29T04:11:06;15;15;
47081;PMS5003;33066;49.296;14.470;2022-07-29T04:13:31;11;11;
47081;PMS5003;33066;49.296;14.470;2022-07-29T04:15:57;17;17;
47081;PMS5003;33066;49.296;14.470;2022-07-29T04:18:22;12;12;
47081;PMS5003;33066;49.296;14.470;2022-07-29T04:20:47;12;12;
47081;PMS5003;33066;49.296;14.470;2022-07-29T04:23:12;10;10;
47081;PMS5003;33066;49.296;14.470;2022-07-29T04:25:39;13;13;
47081;PMS5003;33066;49.296;14.470;2022-07-29T04:28:03;13;13;
47081;PMS5003;33066;49.296;14.470;2022-07-29T04:30:30;16;14;
47081;PMS5003;33066;49.296;14.470;2022-07-29T04:32:54;14;12;
47081;PMS5003;33066;49.296;14.470;2022-07-29T04:35:19;13;13;
47081;PMS5003;33066;49.296;14.470;2022-07-29T04:37:45;17;16;
47081;PMS5003;33066;49.296;14.470;2022-07-29T04:40:11;13;13;
47081;PMS5003;33066;49.296;14.470;2022-07-29T04:42:35;11;9;
47081;PMS5003;33066;49.296;14.470;2022-07-29T04:45:00;14;14;
47081;PMS5003;33066;49.296;14.470;2022-07-29T04:47:27;19;14;
47081;PMS5003;33066;49.296;14.470;2022-07-29T04:49:52;11;11;
47081;PMS5003;33066;49.296;14.470;2022-07-29T04:52:17;11;10;
47081;PMS5003;33066;49.296;14.470;2022-07-29T04:54:43;13;13;
47081;PMS5003;33066;49.296;14.470;2022-07-29T04:57:09;16;14;
47081;PMS5003;33066;49.296;14.470;2022-07-29T04:59:33;15;15;
47081;PMS5003;33066;49.296;14.470;2022-07-29T05:01:58;14;12;
47081;PMS5003;33066;49.296;14.470;2022-07-29T05:04:25;12;12;
47081;PMS5003;33066;49.296;14.470;2022-07-29T05:06:49;13;13;
47081;PMS5003;33066;49.296;14.470;2022-07-29T05:09:14;14;14;
47081;PMS5003;33066;49.296;14.470;2022-07-29T05:11:40;18;17;
47081;PMS5003;33066;49.296;14.470;2022-07-29T05:14:07;15;14;
47081;PMS5003;33066;49.296;14.470;2022-07-29T05:16:31;13;11;
47081;PMS5003;33066;49.296;14.470;2022-07-29T05:18:59;19;18;
47081;PMS5003;33066;49.296;14.470;2022-07-29T05:21:23;17;17;
47081;PMS5003;33066;49.296;14.470;2022-07-29T05:23:48;15;12;
47081;PMS5003;33066;49.296;14.470;2022-07-29T05:26:13;13;12;
47081;PMS5003;33066;49.296;14.470;2022-07-29T05:28:37;13;12;
47081;PMS5003;33066;49.296;14.470;2022-07-29T05:31:04;14;14;
47081;PMS5003;33066;49.296;14.470;2022-07-29T05:33:27;13;13;
47081;PMS5003;33066;49.296;14.470;2022-07-29T05:35:52;12;11;
47081;PMS5003;33066;49.296;14.470;2022-07-29T05:38:19;13;13;
47081;PMS5003;33066;49.296;14.470;2022-07-29T05:40:43;14;12;
47081;PMS5003;33066;49.296;14.470;2022-07-29T05:43:08;11;11;
47081;PMS5003;33066;49.296;14.470;2022-07-29T05:45:33;15;15;
47081;PMS5003;33066;49.296;14.470;2022-07-29T05:47:59;12;12;
47081;PMS5003;33066;49.296;14.470;2022-07-29T05:50:26;15;14;
47081;PMS5003;33066;49.296;14.470;2022-07-29T05:52:50;12;12;
47081;PMS5003;33066;49.296;14.470;2022-07-29T05:55:15;12;11;
47081;PMS5003;33066;49.296;14.470;2022-07-29T05:57:40;13;13;
47081;PMS5003;33066;49.296;14.470;2022-07-29T06:00:06;12;12;
47081;PMS5003;33066;49.296;14.470;2022-07-29T06:02:31;14;14;
47081;PMS5003;33066;49.296;14.470;2022-07-29T06:04:57;14;13;
47081;PMS5003;33066;49.296;14.470;2022-07-29T06:07:21;14;14;
47081;PMS5003;33066;49.296;14.470;2022-07-29T06:09:47;16;13;
47081;PMS5003;33066;49.296;14.470;2022-07-29T06:12:12;18;16;
47081;PMS5003;33066;49.296;14.470;2022-07-29T06:14:39;12;12;
47081;PMS5003;33066;49.296;14.470;2022-07-29T06:17:03;12;12;
47081;PMS5003;33066;49.296;14.470;2022-07-29T06:19:29;13;13;
47081;PMS5003;33066;49.296;14.470;2022-07-29T06:21:56;16;14;
47081;PMS5003;33066;49.296;14.470;2022-07-29T06:24:21;14;12;
47081;PMS5003;33066;49.296;14.470;2022-07-29T06:26:45;14;12;
47081;PMS5003;33066;49.296;14.470;2022-07-29T06:29:11;11;10;
47081;PMS5003;33066;49.296;14.470;2022-07-29T06:31:36;12;12;
47081;PMS5003;33066;49.296;14.470;2022-07-29T06:34:01;12;10;
47081;PMS5003;33066;49.296;14.470;2022-07-29T06:36:26;10;10;
47081;PMS5003;33066;49.296;14.470;2022-07-29T06:38:52;13;13;
47081;PMS5003;33066;49.296;14.470;2022-07-29T06:41:17;11;11;
47081;PMS5003;33066;49.296;14.470;2022-07-29T06:43:43;10;10;
47081;PMS5003;33066;49.296;14.470;2022-07-29T06:46:08;13;10;
47081;PMS5003;33066;49.296;14.470;2022-07-29T06:48:33;9;9;
47081;PMS5003;33066;49.296;14.470;2022-07-29T06:50:58;11;10;
47081;PMS5003;33066;49.296;14.470;2022-07-29T06:53:23;11;9;
47081;PMS5003;33066;49.296;14.470;2022-07-29T06:55:48;16;13;
47081;PMS5003;33066;49.296;14.470;2022-07-29T06:58:14;17;13;
47081;PMS5003;33066;49.296;14.470;2022-07-29T07:00:40;17;11;
47081;PMS5003;33066;49.296;14.470;2022-07-29T07:03:06;13;12;
47081;PMS5003;33066;49.296;14.470;2022-07-29T07:05:30;14;12;
47081;PMS5003;33066;49.296;14.470;2022-07-29T07:07:56;17;17;
47081;PMS5003;33066;49.296;14.470;2022-07-29T07:10:21;12;11;
47081;PMS5003;33066;49.296;14.470;2022-07-29T07:12:49;14;13;
47081;PMS5003;33066;49.296;14.470;2022-07-29T07:15:12;16;13;
47081;PMS5003;33066;49.296;14.470;2022-07-29T07:17:37;14;11;
47081;PMS5003;33066;49.296;14.470;2022-07-29T07:20:02;13;11;
47081;PMS5003;33066;49.296;14.470;2022-07-29T07:22:28;15;14;
47081;PMS5003;33066;49.296;14.470;2022-07-29T07:24:53;11;11;
47081;PMS5003;33066;49.296;14.470;2022-07-29T07:27:18;15;13;
47081;PMS5003;33066;49.296;14.470;2022-07-29T07:29:43;13;12;
47081;PMS5003;33066;49.296;14.470;2022-07-29T07:32:08;12;11;
47081;PMS5003;33066;49.296;14.470;2022-07-29T07:34:34;19;19;
47081;PMS5003;33066;49.296;14.470;2022-07-29T07:37:00;14;13;
47081;PMS5003;33066;49.296;14.470;2022-07-29T07:39:25;11;10;
47081;PMS5003;33066;49.296;14.470;2022-07-29T07:41:50;11;9;
47081;PMS5003;33066;49.296;14.470;2022-07-29T07:44:16;11;10;
47081;PMS5003;33066;49.296;14.470;2022-07-29T07:46:42;13;13;
47081;PMS5003;33066;49.296;14.470;2022-07-29T07:49:07;10;10;
47081;PMS5003;33066;49.296;14.470;2022-07-29T07:51:36;12;12;
47081;PMS5003;33066;49.296;14.470;2022-07-29T07:54:01;13;12;
47081;PMS5003;33066;49.296;14.470;2022-07-29T07:56:26;11;11;
47081;PMS5003;33066;49.296;14.470;2022-07-29T07:58:51;11;10;
47081;PMS5003;33066;49.296;14.470;2022-07-29T08:01:16;10;10;
47081;PMS5003;33066;49.296;14.470;2022-07-29T08:03:44;11;11;
47081;PMS5003;33066;49.296;14.470;2022-07-29T08:06:09;14;12;
47081;PMS5003;33066;49.296;14.470;2022-07-29T08:08:34;10;10;
47081;PMS5003;33066;49.296;14.470;2022-07-29T08:11:00;9;9;
47081;PMS5003;33066;49.296;14.470;2022-07-29T08:13:26;20;18;
47081;PMS5003;33066;49.296;14.470;2022-07-29T08:15:51;11;11;
47081;PMS5003;33066;49.296;14.470;2022-07-29T08:18:16;10;10;
47081;PMS5003;33066;49.296;14.470;2022-07-29T08:20:42;15;14;
47081;PMS5003;33066;49.296;14.470;2022-07-29T08:23:07;12;12;
47081;PMS5003;33066;49.296;14.470;2022-07-29T08:25:33;11;9;
47081;PMS5003;33066;49.296;14.470;2022-07-29T08:27:59;15;11;
47081;PMS5003;33066;49.296;14.470;2022-07-29T08:30:25;13;12;
47081;PMS5003;33066;49.296;14.470;2022-07-29T08:32:50;11;11;
47081;PMS5003;33066;49.296;14.470;2022-07-29T08:35:17;20;12;
47081;PMS5003;33066;49.296;14.470;2022-07-29T08:37:43;18;12;
47081;PMS5003;33066;49.296;14.470;2022-07-29T08:40:07;14;11;
47081;PMS5003;33066;49.296;14.470;2022-07-29T08:42:35;14;12;
47081;PMS5003;33066;49.296;14.470;2022-07-29T08:44:58;14;14;
47081;PMS5003;33066;49.296;14.470;2022-07-29T08:47:24;13;13;
47081;PMS5003;33066;49.296;14.470;2022-07-29T08:49:50;11;9;
47081;PMS5003;33066;49.296;14.470;2022-07-29T08:52:15;14;13;
47081;PMS5003;33066;49.296;14.470;2022-07-29T08:54:43;12;11;
47081;PMS5003;33066;49.296;14.470;2022-07-29T08:57:06;8;8;
47081;PMS5003;33066;49.296;14.470;2022-07-29T08:59:32;10;10;
47081;PMS5003;33066;49.296;14.470;2022-07-29T09:01:58;15;14;
47081;PMS5003;33066;49.296;14.470;2022-07-29T09:04:25;11;11;
47081;PMS5003;33066;49.296;14.470;2022-07-29T09:06:51;12;10;
47081;PMS5003;33066;49.296;14.470;2022-07-29T09:09:15;12;12;
47081;PMS5003;33066;49.296;14.470;2022-07-29T09:11:41;18;18;
47081;PMS5003;33066;49.296;14.470;2022-07-29T09:14:06;13;11;
47081;PMS5003;33066;49.296;14.470;2022-07-29T09:18:57;13;13;
47081;PMS5003;33066;49.296;14.470;2022-07-29T09:21:22;11;11;
47081;PMS5003;33066;49.296;14.470;2022-07-29T09:26:14;10;10;
47081;PMS5003;33066;49.296;14.470;2022-07-29T09:28:42;17;17;
47081;PMS5003;33066;49.296;14.470;2022-07-29T09:31:03;16;15;
47081;PMS5003;33066;49.296;14.470;2022-07-29T09:33:32;18;14;
47081;PMS5003;33066;49.296;14.470;2022-07-29T09:36:00;12;12;
47081;PMS5003;33066;49.296;14.470;2022-07-29T09:38:22;13;13;
47081;PMS5003;33066;49.296;14.470;2022-07-29T09:43:12;13;12;
47081;PMS5003;33066;49.296;14.470;2022-07-29T09:45:38;17;13;
47081;PMS5003;33066;49.296;14.470;2022-07-29T09:50:35;13;13;
47081;PMS5003;33066;49.296;14.470;2022-07-29T09:52:56;13;13;
47081;PMS5003;33066;49.296;14.470;2022-07-29T09:55:20;12;12;
47081;PMS5003;33066;49.296;14.470;2022-07-29T09:57:46;13;13;
47081;PMS5003;33066;49.296;14.470;2022-07-29T10:00:13;15;11;
47081;PMS5003;33066;49.296;14.470;2022-07-29T10:02:38;13;13;
47081;PMS5003;33066;49.296;14.470;2022-07-29T10:05:03;11;11;
47081;PMS5003;33066;49.296;14.470;2022-07-29T10:09:55;12;11;
47081;PMS5003;33066;49.296;14.470;2022-07-29T10:12:20;10;10;
47081;PMS5003;33066;49.296;14.470;2022-07-29T10:14:47;13;12;
47081;PMS5003;33066;49.296;14.470;2022-07-29T10:17:15;18;17;
47081;PMS5003;33066;49.296;14.470;2022-07-29T10:19:38;15;15;
47081;PMS5003;33066;49.296;14.470;2022-07-29T10:22:06;14;14;
47081;PMS5003;33066;49.296;14.470;2022-07-29T10:24:27;14;11;
47081;PMS5003;33066;49.296;14.470;2022-07-29T10:26:52;12;12;
47081;PMS5003;33066;49.296;14.470;2022-07-29T10:29:18;16;15;
47081;PMS5003;33066;49.296;14.470;2022-07-29T10:31:46;11;11;
47081;PMS5003;33066;49.296;14.470;2022-07-29T10:34:11;16;16;
47081;PMS5003;33066;49.296;14.470;2022-07-29T10:36:40;13;11;
47081;PMS5003;33066;49.296;14.470;2022-07-29T10:39:02;11;11;
47081;PMS5003;33066;49.296;14.470;2022-07-29T10:43:52;14;14;
47081;PMS5003;33066;49.296;14.470;2022-07-29T10:46:20;13;12;
47081;PMS5003;33066;49.296;14.470;2022-07-29T10:51:08;12;11;
47081;PMS5003;33066;49.296;14.470;2022-07-29T10:56:00;11;10;
47081;PMS5003;33066;49.296;14.470;2022-07-29T10:58:27;14;12;
47081;PMS5003;33066;49.296;14.470;2022-07-29T11:00:51;17;17;
47081;PMS5003;33066;49.296;14.470;2022-07-29T11:10:32;16;16;
47081;PMS5003;33066;49.296;14.470;2022-07-29T11:12:59;11;10;
47081;PMS5003;33066;49.296;14.470;2022-07-29T11:15:24;13;13;
47081;PMS5003;33066;49.296;14.470;2022-07-29T11:22:40;13;13;
47081;PMS5003;33066;49.296;14.470;2022-07-29T11:25:13;17;14;
47081;PMS5003;33066;49.296;14.470;2022-07-29T11:27:32;14;13;
47081;PMS5003;33066;49.296;14.470;2022-07-29T11:29:58;15;13;
47081;PMS5003;33066;49.296;14.470;2022-07-29T11:32:23;12;12;
47081;PMS5003;33066;49.296;14.470;2022-07-29T11:35:09;13;13;
47081;PMS5003;33066;49.296;14.470;2022-07-29T11:37:15;10;10;
47081;PMS5003;33066;49.296;14.470;2022-07-29T11:39:39;15;15;
47081;PMS5003;33066;49.296;14.470;2022-07-29T11:46:57;16;11;
47081;PMS5003;33066;49.296;14.470;2022-07-29T11:49:23;14;11;
47081;PMS5003;33066;49.296;14.470;2022-07-29T11:51:51;13;12;
47081;PMS5003;33066;49.296;14.470;2022-07-29T11:54:15;15;15;
47081;PMS5003;33066;49.296;14.470;2022-07-29T11:56:38;9;9;
47081;PMS5003;33066;49.296;14.470;2022-07-29T11:59:06;16;14;
47081;PMS5003;33066;49.296;14.470;2022-07-29T12:01:29;18;16;
47081;PMS5003;33066;49.296;14.470;2022-07-29T12:06:20;12;11;
47081;PMS5003;33066;49.296;14.470;2022-07-29T12:08:45;13;13;
47081;PMS5003;33066;49.296;14.470;2022-07-29T12:11:15;19;16;
47081;PMS5003;33066;49.296;14.470;2022-07-29T12:13:38;15;14;
47081;PMS5003;33066;49.296;14.470;2022-07-29T12:16:01;12;12;
47081;PMS5003;33066;49.296;14.470;2022-07-29T12:18:27;12;10;
47081;PMS5003;33066;49.296;14.470;2022-07-29T12:20:56;12;11;
47081;PMS5003;33066;49.296;14.470;2022-07-29T12:23:18;15;14;
47081;PMS5003;33066;49.296;14.470;2022-07-29T12:25:53;13;13;
47081;PMS5003;33066;49.296;14.470;2022-07-29T12:28:09;13;10;
47081;PMS5003;33066;49.296;14.470;2022-07-29T12:30:36;13;13;
47081;PMS5003;33066;49.296;14.470;2022-07-29T12:33:09;13;13;
47081;PMS5003;33066;49.296;14.470;2022-07-29T12:35:26;13;11;
47081;PMS5003;33066;49.296;14.470;2022-07-29T12:37:51;14;12;
47081;PMS5003;33066;49.296;14.470;2022-07-29T12:40:16;14;12;
47081;PMS5003;33066;49.296;14.470;2022-07-29T12:45:07;11;10;
47081;PMS5003;33066;49.296;14.470;2022-07-29T12:47:33;17;16;
47081;PMS5003;33066;49.296;14.470;2022-07-29T12:50:07;11;9;
47081;PMS5003;33066;49.296;14.470;2022-07-29T12:52:27;14;14;
47081;PMS5003;33066;49.296;14.470;2022-07-29T12:54:49;15;15;
47081;PMS5003;33066;49.296;14.470;2022-07-29T12:57:20;14;13;
47081;PMS5003;33066;49.296;14.470;2022-07-29T12:59:40;15;14;
47081;PMS5003;33066;49.296;14.470;2022-07-29T13:02:06;12;12;
47081;PMS5003;33066;49.296;14.470;2022-07-29T13:04:33;14;14;
47081;PMS5003;33066;49.296;14.470;2022-07-29T13:06:58;10;10;
47081;PMS5003;33066;49.296;14.470;2022-07-29T13:09:35;13;11;
47081;PMS5003;33066;49.296;14.470;2022-07-29T13:11:50;18;14;
47081;PMS5003;33066;49.296;14.470;2022-07-29T13:19:05;19;17;
47081;PMS5003;33066;49.296;14.470;2022-07-29T13:21:32;13;13;
47081;PMS5003;33066;49.296;14.470;2022-07-29T13:23:56;15;14;
47081;PMS5003;33066;49.296;14.470;2022-07-29T13:26:21;21;19;
47081;PMS5003;33066;49.296;14.470;2022-07-29T13:28:47;17;14;
47081;PMS5003;33066;49.296;14.470;2022-07-29T13:31:13;12;10;
47081;PMS5003;33066;49.296;14.470;2022-07-29T13:33:38;14;14;
47081;PMS5003;33066;49.296;14.470;2022-07-29T13:36:03;11;11;
47081;PMS5003;33066;49.296;14.470;2022-07-29T13:38:30;12;12;
47081;PMS5003;33066;49.296;14.470;2022-07-29T13:40:54;17;14;
47081;PMS5003;33066;49.296;14.470;2022-07-29T13:43:19;16;15;
47081;PMS5003;33066;49.296;14.470;2022-07-29T13:45:45;12;12;
47081;PMS5003;33066;49.296;14.470;2022-07-29T13:48:10;14;13;
47081;PMS5003;33066;49.296;14.470;2022-07-29T13:50:37;16;14;
47081;PMS5003;33066;49.296;14.470;2022-07-29T13:53:04;15;15;
47081;PMS5003;33066;49.296;14.470;2022-07-29T13:55:28;17;15;
47081;PMS5003;33066;49.296;14.470;2022-07-29T13:57:51;14;13;
47081;PMS5003;33066;49.296;14.470;2022-07-29T14:00:17;16;12;
47081;PMS5003;33066;49.296;14.470;2022-07-29T14:02:43;14;13;
47081;PMS5003;33066;49.296;14.470;2022-07-29T14:05:10;19;17;
47081;PMS5003;33066;49.296;14.470;2022-07-29T14:07:33;14;14;
47081;PMS5003;33066;49.296;14.470;2022-07-29T14:09:59;14;12;
47081;PMS5003;33066;49.296;14.470;2022-07-29T14:12:26;14;12;
47081;PMS5003;33066;49.296;14.470;2022-07-29T14:14:51;14;14;
47081;PMS5003;33066;49.296;14.470;2022-07-29T14:17:16;11;10;
47081;PMS5003;33066;49.296;14.470;2022-07-29T14:19:42;13;13;
47081;PMS5003;33066;49.296;14.470;2022-07-29T14:22:08;18;15;
47081;PMS5003;33066;49.296;14.470;2022-07-29T14:24:32;12;12;
47081;PMS5003;33066;49.296;14.470;2022-07-29T14:26:57;14;14;
47081;PMS5003;33066;49.296;14.470;2022-07-29T14:29:24;15;15;
47081;PMS5003;33066;49.296;14.470;2022-07-29T14:31:49;15;15;
47081;PMS5003;33066;49.296;14.470;2022-07-29T14:34:13;17;15;
47081;PMS5003;33066;49.296;14.470;2022-07-29T14:36:39;19;18;
47081;PMS5003;33066;49.296;14.470;2022-07-29T14:39:03;26;24;
47081;PMS5003;33066;49.296;14.470;2022-07-29T14:41:30;39;37;
47081;PMS5003;33066;49.296;14.470;2022-07-29T14:43:57;43;38;
47081;PMS5003;33066;49.296;14.470;2022-07-29T14:46:20;75;63;
47081;PMS5003;33066;49.296;14.470;2022-07-29T14:48:47;146;126;
47081;PMS5003;33066;49.296;14.470;2022-07-29T14:51:11;104;98;
47081;PMS5003;33066;49.296;14.470;2022-07-29T14:53:39;164;149;
47081;PMS5003;33066;49.296;14.470;2022-07-29T14:56:04;88;81;
47081;PMS5003;33066;49.296;14.470;2022-07-29T14:58:29;43;41;
47081;PMS5003;33066;49.296;14.470;2022-07-29T15:00:54;48;47;
47081;PMS5003;33066;49.296;14.470;2022-07-29T15:03:18;159;147;
47081;PMS5003;33066;49.296;14.470;2022-07-29T15:05:43;49;48;
47081;PMS5003;33066;49.296;14.470;2022-07-29T15:08:09;40;38;
47081;PMS5003;33066;49.296;14.470;2022-07-29T15:10:35;36;33;
47081;PMS5003;33066;49.296;14.470;2022-07-29T15:13:02;23;21;
47081;PMS5003;33066;49.296;14.470;2022-07-29T15:15:25;17;15;
47081;PMS5003;33066;49.296;14.470;2022-07-29T15:17:52;23;22;
47081;PMS5003;33066;49.296;14.470;2022-07-29T15:20:17;25;24;
47081;PMS5003;33066;49.296;14.470;2022-07-29T15:22:42;21;19;
47081;PMS5003;33066;49.296;14.470;2022-07-29T15:25:08;16;15;
47081;PMS5003;33066;49.296;14.470;2022-07-29T15:27:32;16;16;
47081;PMS5003;33066;49.296;14.470;2022-07-29T15:29:58;16;16;
47081;PMS5003;33066;49.296;14.470;2022-07-29T15:32:25;17;17;
47081;PMS5003;33066;49.296;14.470;2022-07-29T15:34:49;12;12;
47081;PMS5003;33066;49.296;14.470;2022-07-29T15:37:16;20;19;
47081;PMS5003;33066;49.296;14.470;2022-07-29T15:39:41;21;18;
47081;PMS5003;33066;49.296;14.470;2022-07-29T15:42:06;19;19;
47081;PMS5003;33066;49.296;14.470;2022-07-29T15:44:33;12;12;
47081;PMS5003;33066;49.296;14.470;2022-07-29T15:46:57;14;14;
47081;PMS5003;33066;49.296;14.470;2022-07-29T15:49:23;18;15;
47081;PMS5003;33066;49.296;14.470;2022-07-29T15:51:50;15;13;
47081;PMS5003;33066;49.296;14.470;2022-07-29T15:54:14;14;13;
47081;PMS5003;33066;49.296;14.470;2022-07-29T15:56:41;24;20;
47081;PMS5003;33066;49.296;14.470;2022-07-29T15:59:05;14;12;
47081;PMS5003;33066;49.296;14.470;2022-07-29T16:01:30;26;24;
47081;PMS5003;33066;49.296;14.470;2022-07-29T16:03:56;19;17;
47081;PMS5003;33066;49.296;14.470;2022-07-29T16:06:23;19;17;
47081;PMS5003;33066;49.296;14.470;2022-07-29T16:08:47;21;19;
47081;PMS5003;33066;49.296;14.470;2022-07-29T16:11:15;26;24;
47081;PMS5003;33066;49.296;14.470;2022-07-29T16:13:38;19;15;
47081;PMS5003;33066;49.296;14.470;2022-07-29T16:16:04;15;14;
47081;PMS5003;33066;49.296;14.470;2022-07-29T16:18:29;22;19;
47081;PMS5003;33066;49.296;14.470;2022-07-29T16:20:54;21;17;
47081;PMS5003;33066;49.296;14.470;2022-07-29T16:23:19;25;22;
47081;PMS5003;33066;49.296;14.470;2022-07-29T16:25:47;19;18;
47081;PMS5003;33066;49.296;14.470;2022-07-29T16:28:11;14;14;
47081;PMS5003;33066;49.296;14.470;2022-07-29T16:30:38;19;18;
47081;PMS5003;33066;49.296;14.470;2022-07-29T16:33:03;19;19;
47081;PMS5003;33066;49.296;14.470;2022-07-29T16:35:27;13;12;
47081;PMS5003;33066;49.296;14.470;2022-07-29T16:37:52;19;17;